sensor_id;sensor_type;location;lat;lon;timestamp;P1;P2;P0
73917;PMS5003;63639;52.280;5.162;2022-12-11T00:01:31;103;86;
73917;PMS5003;63639;52.280;5.162;2022-12-11T00:03:58;88;72;
73917;PMS5003;63639;52.280;5.162;2022-12-11T00:06:24;91;67;
73917;PMS5003;63639;52.280;5.162;2022-12-11T00:08:52;78;67;
73917;PMS5003;63639;52.280;5.162;2022-12-11T00:11:20;83;68;
73917;PMS5003;63639;52.280;5.162;2022-12-11T00:13:48;82;60;
73917;PMS5003;63639;52.280;5.162;2022-12-11T00:16:15;89;70;
73917;PMS5003;63639;52.280;5.162;2022-12-11T00:18:42;78;69;
73917;PMS5003;63639;52.280;5.162;2022-12-11T00:21:10;98;77;
73917;PMS5003;63639;52.280;5.162;2022-12-11T00:23:39;86;69;
73917;PMS5003;63639;52.280;5.162;2022-12-11T00:26:08;76;65;
73917;PMS5003;63639;52.280;5.162;2022-12-11T00:28:37;78;64;
73917;PMS5003;63639;52.280;5.162;2022-12-11T00:31:05;63;60;
73917;PMS5003;63639;52.280;5.162;2022-12-11T00:33:33;70;57;
73917;PMS5003;63639;52.280;5.162;2022-12-11T00:36:00;78;62;
73917;PMS5003;63639;52.280;5.162;2022-12-11T00:38:26;74;67;
73917;PMS5003;63639;52.280;5.162;2022-12-11T00:40:56;67;56;
73917;PMS5003;63639;52.280;5.162;2022-12-11T00:43:23;71;62;
73917;PMS5003;63639;52.280;5.162;2022-12-11T00:45:50;78;61;
73917;PMS5003;63639;52.280;5.162;2022-12-11T00:48:17;72;61;
73917;PMS5003;63639;52.280;5.162;2022-12-11T00:50:43;74;61;
73917;PMS5003;63639;52.280;5.162;2022-12-11T00:53:10;37;33;
73917;PMS5003;63639;52.280;5.162;2022-12-11T00:55:37;87;69;
73917;PMS5003;63639;52.280;5.162;2022-12-11T00:58:06;60;55;
73917;PMS5003;63639;52.280;5.162;2022-12-11T01:00:33;87;70;
73917;PMS5003;63639;52.280;5.162;2022-12-11T01:03:00;81;70;
73917;PMS5003;63639;52.280;5.162;2022-12-11T01:05:27;74;60;
73917;PMS5003;63639;52.280;5.162;2022-12-11T01:07:54;71;57;
73917;PMS5003;63639;52.280;5.162;2022-12-11T01:10:21;64;55;
73917;PMS5003;63639;52.280;5.162;2022-12-11T01:12:47;69;56;
73917;PMS5003;63639;52.280;5.162;2022-12-11T01:15:15;72;64;
73917;PMS5003;63639;52.280;5.162;2022-12-11T01:17:41;76;57;
73917;PMS5003;63639;52.280;5.162;2022-12-11T01:20:08;70;60;
73917;PMS5003;63639;52.280;5.162;2022-12-11T01:22:36;65;53;
73917;PMS5003;63639;52.280;5.162;2022-12-11T01:25:02;74;64;
73917;PMS5003;63639;52.280;5.162;2022-12-11T01:27:30;73;66;
73917;PMS5003;63639;52.280;5.162;2022-12-11T01:29:57;75;66;
73917;PMS5003;63639;52.280;5.162;2022-12-11T01:32:24;60;56;
73917;PMS5003;63639;52.280;5.162;2022-12-11T01:34:52;81;70;
73917;PMS5003;63639;52.280;5.162;2022-12-11T01:37:19;78;66;
73917;PMS5003;63639;52.280;5.162;2022-12-11T01:39:46;72;55;
73917;PMS5003;63639;52.280;5.162;2022-12-11T01:42:14;80;63;
73917;PMS5003;63639;52.280;5.162;2022-12-11T01:45:21;56;45;
73917;PMS5003;63639;52.280;5.162;2022-12-11T01:47:52;83;70;
73917;PMS5003;63639;52.280;5.162;2022-12-11T01:50:24;78;62;
73917;PMS5003;63639;52.280;5.162;2022-12-11T01:52:51;75;61;
73917;PMS5003;63639;52.280;5.162;2022-12-11T01:55:18;88;71;
73917;PMS5003;63639;52.280;5.162;2022-12-11T01:57:46;77;62;
73917;PMS5003;63639;52.280;5.162;2022-12-11T02:01:33;66;55;
73917;PMS5003;63639;52.280;5.162;2022-12-11T02:04:05;97;76;
73917;PMS5003;63639;52.280;5.162;2022-12-11T02:06:35;75;61;
73917;PMS5003;63639;52.280;5.162;2022-12-11T02:09:03;50;41;
73917;PMS5003;63639;52.280;5.162;2022-12-11T02:11:35;70;57;
73917;PMS5003;63639;52.280;5.162;2022-12-11T02:14:10;89;73;
73917;PMS5003;63639;52.280;5.162;2022-12-11T02:16:43;74;57;
73917;PMS5003;63639;52.280;5.162;2022-12-11T02:19:17;57;51;
73917;PMS5003;63639;52.280;5.162;2022-12-11T02:21:56;58;56;
73917;PMS5003;63639;52.280;5.162;2022-12-11T02:24:31;73;56;
73917;PMS5003;63639;52.280;5.162;2022-12-11T02:27:18;68;62;
73917;PMS5003;63639;52.280;5.162;2022-12-11T02:29:53;59;48;
73917;PMS5003;63639;52.280;5.162;2022-12-11T02:32:29;73;61;
73917;PMS5003;63639;52.280;5.162;2022-12-11T02:35:02;91;73;
73917;PMS5003;63639;52.280;5.162;2022-12-11T02:37:34;66;59;
73917;PMS5003;63639;52.280;5.162;2022-12-11T02:40:03;76;63;
73917;PMS5003;63639;52.280;5.162;2022-12-11T02:42:34;80;66;
73917;PMS5003;63639;52.280;5.162;2022-12-11T02:45:03;74;59;
73917;PMS5003;63639;52.280;5.162;2022-12-11T02:47:33;81;61;
73917;PMS5003;63639;52.280;5.162;2022-12-11T02:50:01;82;58;
73917;PMS5003;63639;52.280;5.162;2022-12-11T02:52:33;75;58;
73917;PMS5003;63639;52.280;5.162;2022-12-11T02:55:01;68;47;
73917;PMS5003;63639;52.280;5.162;2022-12-11T02:57:30;73;62;
73917;PMS5003;63639;52.280;5.162;2022-12-11T03:00:03;72;63;
73917;PMS5003;63639;52.280;5.162;2022-12-11T03:02:31;75;63;
73917;PMS5003;63639;52.280;5.162;2022-12-11T03:04:58;71;66;
73917;PMS5003;63639;52.280;5.162;2022-12-11T03:07:26;62;56;
73917;PMS5003;63639;52.280;5.162;2022-12-11T03:09:58;60;52;
73917;PMS5003;63639;52.280;5.162;2022-12-11T03:12:26;73;60;
73917;PMS5003;63639;52.280;5.162;2022-12-11T03:14:55;64;53;
73917;PMS5003;63639;52.280;5.162;2022-12-11T03:17:25;72;58;
73917;PMS5003;63639;52.280;5.162;2022-12-11T03:20:01;68;61;
73917;PMS5003;63639;52.280;5.162;2022-12-11T03:22:38;55;46;
73917;PMS5003;63639;52.280;5.162;2022-12-11T03:25:10;61;53;
73917;PMS5003;63639;52.280;5.162;2022-12-11T03:27:43;43;37;
73917;PMS5003;63639;52.280;5.162;2022-12-11T03:30:15;63;53;
73917;PMS5003;63639;52.280;5.162;2022-12-11T03:32:45;53;49;
73917;PMS5003;63639;52.280;5.162;2022-12-11T03:35:16;62;52;
73917;PMS5003;63639;52.280;5.162;2022-12-11T03:37:45;61;49;
73917;PMS5003;63639;52.280;5.162;2022-12-11T03:40:16;71;56;
73917;PMS5003;63639;52.280;5.162;2022-12-11T03:42:46;67;47;
73917;PMS5003;63639;52.280;5.162;2022-12-11T03:45:16;67;57;
73917;PMS5003;63639;52.280;5.162;2022-12-11T03:47:45;57;45;
73917;PMS5003;63639;52.280;5.162;2022-12-11T03:50:14;52;46;
73917;PMS5003;63639;52.280;5.162;2022-12-11T03:52:43;53;47;
73917;PMS5003;63639;52.280;5.162;2022-12-11T03:55:12;63;47;
73917;PMS5003;63639;52.280;5.162;2022-12-11T03:57:41;60;54;
73917;PMS5003;63639;52.280;5.162;2022-12-11T04:00:10;54;43;
73917;PMS5003;63639;52.280;5.162;2022-12-11T04:02:39;52;43;
73917;PMS5003;63639;52.280;5.162;2022-12-11T04:05:07;63;50;
73917;PMS5003;63639;52.280;5.162;2022-12-11T04:07:35;65;50;
73917;PMS5003;63639;52.280;5.162;2022-12-11T04:10:03;50;39;
73917;PMS5003;63639;52.280;5.162;2022-12-11T04:12:30;47;42;
73917;PMS5003;63639;52.280;5.162;2022-12-11T04:14:57;53;42;
73917;PMS5003;63639;52.280;5.162;2022-12-11T04:17:24;50;44;
73917;PMS5003;63639;52.280;5.162;2022-12-11T04:19:51;53;43;
73917;PMS5003;63639;52.280;5.162;2022-12-11T04:22:17;49;47;
73917;PMS5003;63639;52.280;5.162;2022-12-11T04:24:46;65;50;
73917;PMS5003;63639;52.280;5.162;2022-12-11T04:27:12;48;44;
73917;PMS5003;63639;52.280;5.162;2022-12-11T04:29:39;57;49;
73917;PMS5003;63639;52.280;5.162;2022-12-11T04:32:06;50;48;
73917;PMS5003;63639;52.280;5.162;2022-12-11T04:34:33;50;47;
73917;PMS5003;63639;52.280;5.162;2022-12-11T04:37:00;50;43;
73917;PMS5003;63639;52.280;5.162;2022-12-11T04:39:26;42;38;
73917;PMS5003;63639;52.280;5.162;2022-12-11T04:41:53;58;47;
73917;PMS5003;63639;52.280;5.162;2022-12-11T04:44:20;52;40;
73917;PMS5003;63639;52.280;5.162;2022-12-11T04:46:46;54;49;
73917;PMS5003;63639;52.280;5.162;2022-12-11T04:49:13;55;45;
73917;PMS5003;63639;52.280;5.162;2022-12-11T04:51:40;51;42;
73917;PMS5003;63639;52.280;5.162;2022-12-11T04:54:07;58;49;
73917;PMS5003;63639;52.280;5.162;2022-12-11T04:56:33;51;44;
73917;PMS5003;63639;52.280;5.162;2022-12-11T04:59:00;54;47;
73917;PMS5003;63639;52.280;5.162;2022-12-11T05:01:26;58;49;
73917;PMS5003;63639;52.280;5.162;2022-12-11T05:03:53;55;44;
73917;PMS5003;63639;52.280;5.162;2022-12-11T05:06:20;51;40;
73917;PMS5003;63639;52.280;5.162;2022-12-11T05:08:47;49;48;
73917;PMS5003;63639;52.280;5.162;2022-12-11T05:11:14;53;44;
73917;PMS5003;63639;52.280;5.162;2022-12-11T05:13:42;53;48;
73917;PMS5003;63639;52.280;5.162;2022-12-11T05:16:11;53;40;
73917;PMS5003;63639;52.280;5.162;2022-12-11T05:18:39;42;38;
73917;PMS5003;63639;52.280;5.162;2022-12-11T05:21:07;56;49;
73917;PMS5003;63639;52.280;5.162;2022-12-11T05:23:36;50;46;
73917;PMS5003;63639;52.280;5.162;2022-12-11T05:26:04;57;43;
73917;PMS5003;63639;52.280;5.162;2022-12-11T05:28:34;50;43;
73917;PMS5003;63639;52.280;5.162;2022-12-11T05:31:04;58;50;
73917;PMS5003;63639;52.280;5.162;2022-12-11T05:33:32;55;45;
73917;PMS5003;63639;52.280;5.162;2022-12-11T05:36:00;54;48;
73917;PMS5003;63639;52.280;5.162;2022-12-11T05:38:27;55;49;
73917;PMS5003;63639;52.280;5.162;2022-12-11T05:40:54;53;50;
73917;PMS5003;63639;52.280;5.162;2022-12-11T05:43:21;58;42;
73917;PMS5003;63639;52.280;5.162;2022-12-11T05:45:48;60;47;
73917;PMS5003;63639;52.280;5.162;2022-12-11T05:48:15;62;43;
73917;PMS5003;63639;52.280;5.162;2022-12-11T05:50:42;51;44;
73917;PMS5003;63639;52.280;5.162;2022-12-11T05:53:09;58;51;
73917;PMS5003;63639;52.280;5.162;2022-12-11T05:55:35;62;47;
73917;PMS5003;63639;52.280;5.162;2022-12-11T05:58:03;52;47;
73917;PMS5003;63639;52.280;5.162;2022-12-11T06:00:30;65;50;
73917;PMS5003;63639;52.280;5.162;2022-12-11T06:02:56;53;46;
73917;PMS5003;63639;52.280;5.162;2022-12-11T06:05:23;57;46;
73917;PMS5003;63639;52.280;5.162;2022-12-11T06:07:50;53;45;
73917;PMS5003;63639;52.280;5.162;2022-12-11T06:10:17;68;49;
73917;PMS5003;63639;52.280;5.162;2022-12-11T06:12:43;56;48;
73917;PMS5003;63639;52.280;5.162;2022-12-11T06:15:11;56;51;
73917;PMS5003;63639;52.280;5.162;2022-12-11T06:17:38;53;47;
73917;PMS5003;63639;52.280;5.162;2022-12-11T06:20:05;71;55;
73917;PMS5003;63639;52.280;5.162;2022-12-11T06:22:32;66;55;
73917;PMS5003;63639;52.280;5.162;2022-12-11T06:24:59;55;51;
73917;PMS5003;63639;52.280;5.162;2022-12-11T06:27:26;60;45;
73917;PMS5003;63639;52.280;5.162;2022-12-11T06:29:53;62;53;
73917;PMS5003;63639;52.280;5.162;2022-12-11T06:32:20;62;55;
73917;PMS5003;63639;52.280;5.162;2022-12-11T06:34:46;52;47;
73917;PMS5003;63639;52.280;5.162;2022-12-11T06:37:13;58;52;
73917;PMS5003;63639;52.280;5.162;2022-12-11T06:39:40;58;55;
73917;PMS5003;63639;52.280;5.162;2022-12-11T06:42:07;63;50;
73917;PMS5003;63639;52.280;5.162;2022-12-11T06:44:34;62;52;
73917;PMS5003;63639;52.280;5.162;2022-12-11T06:47:02;68;46;
73917;PMS5003;63639;52.280;5.162;2022-12-11T06:49:29;53;47;
73917;PMS5003;63639;52.280;5.162;2022-12-11T06:51:55;59;50;
73917;PMS5003;63639;52.280;5.162;2022-12-11T06:54:24;59;53;
73917;PMS5003;63639;52.280;5.162;2022-12-11T06:56:51;57;44;
73917;PMS5003;63639;52.280;5.162;2022-12-11T06:59:17;71;54;
73917;PMS5003;63639;52.280;5.162;2022-12-11T07:01:45;54;52;
73917;PMS5003;63639;52.280;5.162;2022-12-11T07:04:12;59;52;
73917;PMS5003;63639;52.280;5.162;2022-12-11T07:06:39;57;49;
73917;PMS5003;63639;52.280;5.162;2022-12-11T07:09:06;51;47;
73917;PMS5003;63639;52.280;5.162;2022-12-11T07:11:33;56;47;
73917;PMS5003;63639;52.280;5.162;2022-12-11T07:14:00;62;53;
73917;PMS5003;63639;52.280;5.162;2022-12-11T07:16:27;58;49;
73917;PMS5003;63639;52.280;5.162;2022-12-11T07:18:54;57;50;
73917;PMS5003;63639;52.280;5.162;2022-12-11T07:21:21;54;48;
73917;PMS5003;63639;52.280;5.162;2022-12-11T07:23:47;71;58;
73917;PMS5003;63639;52.280;5.162;2022-12-11T07:26:16;54;43;
73917;PMS5003;63639;52.280;5.162;2022-12-11T07:28:45;70;48;
73917;PMS5003;63639;52.280;5.162;2022-12-11T07:31:12;68;54;
73917;PMS5003;63639;52.280;5.162;2022-12-11T07:33:41;62;48;
73917;PMS5003;63639;52.280;5.162;2022-12-11T07:36:09;55;43;
73917;PMS5003;63639;52.280;5.162;2022-12-11T07:38:37;54;47;
73917;PMS5003;63639;52.280;5.162;2022-12-11T07:41:06;54;48;
73917;PMS5003;63639;52.280;5.162;2022-12-11T07:43:34;56;48;
73917;PMS5003;63639;52.280;5.162;2022-12-11T07:46:01;51;45;
73917;PMS5003;63639;52.280;5.162;2022-12-11T07:48:28;61;50;
73917;PMS5003;63639;52.280;5.162;2022-12-11T07:51:06;61;51;
73917;PMS5003;63639;52.280;5.162;2022-12-11T07:53:33;47;42;
73917;PMS5003;63639;52.280;5.162;2022-12-11T07:56:00;68;55;
73917;PMS5003;63639;52.280;5.162;2022-12-11T07:58:26;60;50;
73917;PMS5003;63639;52.280;5.162;2022-12-11T08:00:53;69;53;
73917;PMS5003;63639;52.280;5.162;2022-12-11T08:03:20;53;47;
73917;PMS5003;63639;52.280;5.162;2022-12-11T08:05:47;66;54;
73917;PMS5003;63639;52.280;5.162;2022-12-11T08:08:14;59;52;
73917;PMS5003;63639;52.280;5.162;2022-12-11T08:10:42;64;51;
73917;PMS5003;63639;52.280;5.162;2022-12-11T08:13:09;68;55;
73917;PMS5003;63639;52.280;5.162;2022-12-11T08:15:36;65;55;
73917;PMS5003;63639;52.280;5.162;2022-12-11T08:18:03;67;57;
73917;PMS5003;63639;52.280;5.162;2022-12-11T08:20:30;71;56;
73917;PMS5003;63639;52.280;5.162;2022-12-11T08:22:58;71;58;
73917;PMS5003;63639;52.280;5.162;2022-12-11T08:25:25;59;54;
73917;PMS5003;63639;52.280;5.162;2022-12-11T08:27:51;56;50;
73917;PMS5003;63639;52.280;5.162;2022-12-11T08:30:18;71;58;
73917;PMS5003;63639;52.280;5.162;2022-12-11T08:32:45;61;59;
73917;PMS5003;63639;52.280;5.162;2022-12-11T08:35:11;68;54;
73917;PMS5003;63639;52.280;5.162;2022-12-11T08:37:38;58;50;
73917;PMS5003;63639;52.280;5.162;2022-12-11T08:40:05;53;45;
73917;PMS5003;63639;52.280;5.162;2022-12-11T08:42:34;53;48;
73917;PMS5003;63639;52.280;5.162;2022-12-11T08:45:01;57;44;
73917;PMS5003;63639;52.280;5.162;2022-12-11T08:47:27;61;51;
73917;PMS5003;63639;52.280;5.162;2022-12-11T08:49:54;59;47;
73917;PMS5003;63639;52.280;5.162;2022-12-11T08:52:21;56;42;
73917;PMS5003;63639;52.280;5.162;2022-12-11T08:54:48;62;51;
73917;PMS5003;63639;52.280;5.162;2022-12-11T08:57:15;56;46;
73917;PMS5003;63639;52.280;5.162;2022-12-11T08:59:42;62;52;
73917;PMS5003;63639;52.280;5.162;2022-12-11T09:02:09;52;43;
73917;PMS5003;63639;52.280;5.162;2022-12-11T09:04:37;77;59;
73917;PMS5003;63639;52.280;5.162;2022-12-11T09:07:05;63;49;
73917;PMS5003;63639;52.280;5.162;2022-12-11T09:09:31;59;49;
73917;PMS5003;63639;52.280;5.162;2022-12-11T09:11:58;64;54;
73917;PMS5003;63639;52.280;5.162;2022-12-11T09:14:24;63;54;
73917;PMS5003;63639;52.280;5.162;2022-12-11T09:16:51;62;52;
73917;PMS5003;63639;52.280;5.162;2022-12-11T09:19:18;70;53;
73917;PMS5003;63639;52.280;5.162;2022-12-11T09:21:45;53;49;
73917;PMS5003;63639;52.280;5.162;2022-12-11T09:24:12;68;57;
73917;PMS5003;63639;52.280;5.162;2022-12-11T09:26:39;67;53;
73917;PMS5003;63639;52.280;5.162;2022-12-11T09:29:06;62;50;
73917;PMS5003;63639;52.280;5.162;2022-12-11T09:31:33;62;55;
73917;PMS5003;63639;52.280;5.162;2022-12-11T09:34:02;63;55;
73917;PMS5003;63639;52.280;5.162;2022-12-11T09:36:30;59;48;
73917;PMS5003;63639;52.280;5.162;2022-12-11T09:38:58;61;49;
73917;PMS5003;63639;52.280;5.162;2022-12-11T09:41:32;68;54;
73917;PMS5003;63639;52.280;5.162;2022-12-11T09:44:06;64;58;
73917;PMS5003;63639;52.280;5.162;2022-12-11T09:46:42;64;56;
73917;PMS5003;63639;52.280;5.162;2022-12-11T09:49:13;64;55;
73917;PMS5003;63639;52.280;5.162;2022-12-11T09:51:51;57;53;
73917;PMS5003;63639;52.280;5.162;2022-12-11T09:54:26;60;45;
73917;PMS5003;63639;52.280;5.162;2022-12-11T09:56:55;57;46;
73917;PMS5003;63639;52.280;5.162;2022-12-11T09:59:29;74;60;
73917;PMS5003;63639;52.280;5.162;2022-12-11T10:02:04;58;54;
73917;PMS5003;63639;52.280;5.162;2022-12-11T10:04:49;61;52;
73917;PMS5003;63639;52.280;5.162;2022-12-11T10:07:27;58;53;
73917;PMS5003;63639;52.280;5.162;2022-12-11T10:09:58;64;56;
73917;PMS5003;63639;52.280;5.162;2022-12-11T10:12:33;53;46;
73917;PMS5003;63639;52.280;5.162;2022-12-11T10:15:13;62;51;
73917;PMS5003;63639;52.280;5.162;2022-12-11T10:17:49;53;46;
73917;PMS5003;63639;52.280;5.162;2022-12-11T10:20:21;75;55;
73917;PMS5003;63639;52.280;5.162;2022-12-11T10:22:50;67;54;
73917;PMS5003;63639;52.280;5.162;2022-12-11T10:25:20;69;59;
73917;PMS5003;63639;52.280;5.162;2022-12-11T10:27:50;72;63;
73917;PMS5003;63639;52.280;5.162;2022-12-11T10:30:18;64;53;
73917;PMS5003;63639;52.280;5.162;2022-12-11T10:32:49;76;60;
73917;PMS5003;63639;52.280;5.162;2022-12-11T10:35:22;67;58;
73917;PMS5003;63639;52.280;5.162;2022-12-11T10:37:55;72;59;
73917;PMS5003;63639;52.280;5.162;2022-12-11T10:40:30;65;51;
73917;PMS5003;63639;52.280;5.162;2022-12-11T10:43:00;66;54;
73917;PMS5003;63639;52.280;5.162;2022-12-11T10:45:27;61;55;
73917;PMS5003;63639;52.280;5.162;2022-12-11T10:48:00;76;60;
73917;PMS5003;63639;52.280;5.162;2022-12-11T10:50:27;64;53;
73917;PMS5003;63639;52.280;5.162;2022-12-11T10:52:54;61;54;
73917;PMS5003;63639;52.280;5.162;2022-12-11T10:55:23;67;55;
73917;PMS5003;63639;52.280;5.162;2022-12-11T10:57:53;63;60;
73917;PMS5003;63639;52.280;5.162;2022-12-11T11:00:28;76;60;
73917;PMS5003;63639;52.280;5.162;2022-12-11T11:02:58;72;56;
73917;PMS5003;63639;52.280;5.162;2022-12-11T11:05:27;59;55;
73917;PMS5003;63639;52.280;5.162;2022-12-11T11:08:10;76;61;
73917;PMS5003;63639;52.280;5.162;2022-12-11T11:10:56;77;59;
73917;PMS5003;63639;52.280;5.162;2022-12-11T11:13:26;66;58;
73917;PMS5003;63639;52.280;5.162;2022-12-11T11:15:57;70;58;
73917;PMS5003;63639;52.280;5.162;2022-12-11T11:18:26;68;53;
73917;PMS5003;63639;52.280;5.162;2022-12-11T11:20:55;73;54;
73917;PMS5003;63639;52.280;5.162;2022-12-11T11:23:23;71;53;
73917;PMS5003;63639;52.280;5.162;2022-12-11T11:25:51;60;54;
73917;PMS5003;63639;52.280;5.162;2022-12-11T11:28:21;63;57;
73917;PMS5003;63639;52.280;5.162;2022-12-11T11:30:54;63;52;
73917;PMS5003;63639;52.280;5.162;2022-12-11T11:33:24;62;51;
73917;PMS5003;63639;52.280;5.162;2022-12-11T11:35:51;77;66;
73917;PMS5003;63639;52.280;5.162;2022-12-11T11:38:20;66;60;
73917;PMS5003;63639;52.280;5.162;2022-12-11T11:40:52;62;50;
73917;PMS5003;63639;52.280;5.162;2022-12-11T11:43:26;70;64;
73917;PMS5003;63639;52.280;5.162;2022-12-11T11:46:00;61;53;
73917;PMS5003;63639;52.280;5.162;2022-12-11T11:48:34;61;54;
73917;PMS5003;63639;52.280;5.162;2022-12-11T11:51:07;61;51;
73917;PMS5003;63639;52.280;5.162;2022-12-11T11:53:42;60;55;
73917;PMS5003;63639;52.280;5.162;2022-12-11T11:56:16;77;54;
73917;PMS5003;63639;52.280;5.162;2022-12-11T11:58:46;53;47;
73917;PMS5003;63639;52.280;5.162;2022-12-11T12:01:19;90;84;
73917;PMS5003;63639;52.280;5.162;2022-12-11T12:03:47;78;64;
73917;PMS5003;63639;52.280;5.162;2022-12-11T12:06:16;69;59;
73917;PMS5003;63639;52.280;5.162;2022-12-11T12:08:50;70;61;
73917;PMS5003;63639;52.280;5.162;2022-12-11T12:11:27;55;41;
73917;PMS5003;63639;52.280;5.162;2022-12-11T12:14:02;63;53;
73917;PMS5003;63639;52.280;5.162;2022-12-11T12:16:39;53;50;
73917;PMS5003;63639;52.280;5.162;2022-12-11T12:19:17;70;60;
73917;PMS5003;63639;52.280;5.162;2022-12-11T12:21:57;64;59;
73917;PMS5003;63639;52.280;5.162;2022-12-11T12:24:32;61;49;
73917;PMS5003;63639;52.280;5.162;2022-12-11T12:27:12;60;50;
73917;PMS5003;63639;52.280;5.162;2022-12-11T12:29:46;61;53;
73917;PMS5003;63639;52.280;5.162;2022-12-11T12:32:24;56;51;
73917;PMS5003;63639;52.280;5.162;2022-12-11T12:35:05;56;47;
73917;PMS5003;63639;52.280;5.162;2022-12-11T12:37:53;56;53;
73917;PMS5003;63639;52.280;5.162;2022-12-11T12:40:27;74;55;
73917;PMS5003;63639;52.280;5.162;2022-12-11T12:43:00;62;57;
73917;PMS5003;63639;52.280;5.162;2022-12-11T12:45:36;54;49;
73917;PMS5003;63639;52.280;5.162;2022-12-11T12:48:09;65;52;
73917;PMS5003;63639;52.280;5.162;2022-12-11T12:50:37;59;46;
73917;PMS5003;63639;52.280;5.162;2022-12-11T12:53:08;52;47;
73917;PMS5003;63639;52.280;5.162;2022-12-11T12:55:42;57;48;
73917;PMS5003;63639;52.280;5.162;2022-12-11T12:58:22;62;53;
73917;PMS5003;63639;52.280;5.162;2022-12-11T13:00:52;56;53;
73917;PMS5003;63639;52.280;5.162;2022-12-11T13:03:20;56;46;
73917;PMS5003;63639;52.280;5.162;2022-12-11T13:05:54;41;40;
73917;PMS5003;63639;52.280;5.162;2022-12-11T13:08:23;47;42;
73917;PMS5003;63639;52.280;5.162;2022-12-11T13:10:57;60;51;
73917;PMS5003;63639;52.280;5.162;2022-12-11T13:13:31;55;50;
73917;PMS5003;63639;52.280;5.162;2022-12-11T13:16:22;55;46;
73917;PMS5003;63639;52.280;5.162;2022-12-11T13:18:56;63;51;
73917;PMS5003;63639;52.280;5.162;2022-12-11T13:21:28;55;46;
73917;PMS5003;63639;52.280;5.162;2022-12-11T13:24:14;55;42;
73917;PMS5003;63639;52.280;5.162;2022-12-11T13:26:49;52;44;
73917;PMS5003;63639;52.280;5.162;2022-12-11T13:29:34;53;45;
73917;PMS5003;63639;52.280;5.162;2022-12-11T13:32:04;57;48;
73917;PMS5003;63639;52.280;5.162;2022-12-11T13:34:50;59;49;
73917;PMS5003;63639;52.280;5.162;2022-12-11T13:37:27;62;49;
73917;PMS5003;63639;52.280;5.162;2022-12-11T13:39:59;69;53;
73917;PMS5003;63639;52.280;5.162;2022-12-11T13:42:30;62;51;
73917;PMS5003;63639;52.280;5.162;2022-12-11T13:44:59;41;35;
73917;PMS5003;63639;52.280;5.162;2022-12-11T13:47:28;53;47;
73917;PMS5003;63639;52.280;5.162;2022-12-11T13:49:59;55;49;
73917;PMS5003;63639;52.280;5.162;2022-12-11T13:52:33;63;52;
73917;PMS5003;63639;52.280;5.162;2022-12-11T13:55:12;55;44;
73917;PMS5003;63639;52.280;5.162;2022-12-11T13:57:47;53;41;
73917;PMS5003;63639;52.280;5.162;2022-12-11T14:00:18;57;46;
73917;PMS5003;63639;52.280;5.162;2022-12-11T14:02:48;54;52;
73917;PMS5003;63639;52.280;5.162;2022-12-11T14:05:17;69;50;
73917;PMS5003;63639;52.280;5.162;2022-12-11T14:07:45;62;52;
73917;PMS5003;63639;52.280;5.162;2022-12-11T14:10:15;48;44;
73917;PMS5003;63639;52.280;5.162;2022-12-11T14:12:44;61;48;
73917;PMS5003;63639;52.280;5.162;2022-12-11T14:15:17;55;49;
73917;PMS5003;63639;52.280;5.162;2022-12-11T14:17:44;64;51;
73917;PMS5003;63639;52.280;5.162;2022-12-11T14:20:14;57;50;
73917;PMS5003;63639;52.280;5.162;2022-12-11T14:22:43;63;51;
73917;PMS5003;63639;52.280;5.162;2022-12-11T14:25:20;57;49;
73917;PMS5003;63639;52.280;5.162;2022-12-11T14:27:57;66;55;
73917;PMS5003;63639;52.280;5.162;2022-12-11T14:30:25;64;56;
73917;PMS5003;63639;52.280;5.162;2022-12-11T14:32:55;68;60;
73917;PMS5003;63639;52.280;5.162;2022-12-11T14:35:25;64;54;
73917;PMS5003;63639;52.280;5.162;2022-12-11T14:37:54;64;57;
73917;PMS5003;63639;52.280;5.162;2022-12-11T14:40:26;66;57;
73917;PMS5003;63639;52.280;5.162;2022-12-11T14:42:58;72;56;
73917;PMS5003;63639;52.280;5.162;2022-12-11T14:45:30;62;54;
73917;PMS5003;63639;52.280;5.162;2022-12-11T14:47:59;59;50;
73917;PMS5003;63639;52.280;5.162;2022-12-11T14:50:31;76;55;
73917;PMS5003;63639;52.280;5.162;2022-12-11T14:53:04;68;56;
73917;PMS5003;63639;52.280;5.162;2022-12-11T14:55:34;78;61;
73917;PMS5003;63639;52.280;5.162;2022-12-11T14:58:13;77;57;
73917;PMS5003;63639;52.280;5.162;2022-12-11T15:00:43;63;55;
73917;PMS5003;63639;52.280;5.162;2022-12-11T15:03:21;71;64;
73917;PMS5003;63639;52.280;5.162;2022-12-11T15:05:49;66;55;
73917;PMS5003;63639;52.280;5.162;2022-12-11T15:08:18;66;55;
73917;PMS5003;63639;52.280;5.162;2022-12-11T15:10:54;65;61;
73917;PMS5003;63639;52.280;5.162;2022-12-11T15:13:27;83;65;
73917;PMS5003;63639;52.280;5.162;2022-12-11T15:15:54;59;54;
73917;PMS5003;63639;52.280;5.162;2022-12-11T15:18:23;82;67;
73917;PMS5003;63639;52.280;5.162;2022-12-11T15:20:52;83;70;
73917;PMS5003;63639;52.280;5.162;2022-12-11T15:23:23;82;72;
73917;PMS5003;63639;52.280;5.162;2022-12-11T15:25:50;67;56;
73917;PMS5003;63639;52.280;5.162;2022-12-11T15:28:26;73;67;
73917;PMS5003;63639;52.280;5.162;2022-12-11T15:30:56;72;65;
73917;PMS5003;63639;52.280;5.162;2022-12-11T15:33:25;111;86;
73917;PMS5003;63639;52.280;5.162;2022-12-11T15:36:00;80;69;
73917;PMS5003;63639;52.280;5.162;2022-12-11T15:38:30;85;71;
73917;PMS5003;63639;52.280;5.162;2022-12-11T15:40:59;78;68;
73917;PMS5003;63639;52.280;5.162;2022-12-11T15:43:27;73;60;
73917;PMS5003;63639;52.280;5.162;2022-12-11T15:45:55;75;68;
73917;PMS5003;63639;52.280;5.162;2022-12-11T15:48:23;75;65;
73917;PMS5003;63639;52.280;5.162;2022-12-11T15:50:50;82;70;
73917;PMS5003;63639;52.280;5.162;2022-12-11T15:53:16;81;67;
73917;PMS5003;63639;52.280;5.162;2022-12-11T15:55:43;88;75;
73917;PMS5003;63639;52.280;5.162;2022-12-11T15:58:12;89;77;
73917;PMS5003;63639;52.280;5.162;2022-12-11T16:00:42;87;73;
73917;PMS5003;63639;52.280;5.162;2022-12-11T16:03:10;80;68;
73917;PMS5003;63639;52.280;5.162;2022-12-11T16:05:37;78;72;
73917;PMS5003;63639;52.280;5.162;2022-12-11T16:08:04;92;80;
73917;PMS5003;63639;52.280;5.162;2022-12-11T16:10:31;94;76;
73917;PMS5003;63639;52.280;5.162;2022-12-11T16:12:58;76;71;
73917;PMS5003;63639;52.280;5.162;2022-12-11T16:15:25;94;72;
73917;PMS5003;63639;52.280;5.162;2022-12-11T16:17:58;98;78;
73917;PMS5003;63639;52.280;5.162;2022-12-11T16:20:26;90;75;
73917;PMS5003;63639;52.280;5.162;2022-12-11T16:22:53;80;70;
73917;PMS5003;63639;52.280;5.162;2022-12-11T16:25:20;80;71;
73917;PMS5003;63639;52.280;5.162;2022-12-11T16:27:47;81;71;
73917;PMS5003;63639;52.280;5.162;2022-12-11T16:30:14;103;88;
73917;PMS5003;63639;52.280;5.162;2022-12-11T16:32:42;87;77;
73917;PMS5003;63639;52.280;5.162;2022-12-11T16:35:09;87;77;